Time;durP1;ratioP1;P1;durP2;ratioP2;P2;SDS_P1;SDS_P2;PMS_P1;PMS_P2;Temp;Humidity;BMP_temperature;BMP_pressure;BME280_temperature;BME280_humidity;BME280_pressure;Samples;Min_cycle;Max_cycle;Signal;HPM_P1;HPM_P2
2022/01/12 00:01:42;;;;;;;14.95;8.63;;;10.70;84.80;;;;;;5057973;28;20036;-49
2022/01/12 00:04:10;;;;;;;15.43;8.98;;;10.70;84.60;;;;;;5057980;28;20036;-49
2022/01/12 00:06:36;;;;;;;15.63;8.07;;;10.60;84.50;;;;;;5057709;28;20031;-48
2022/01/12 00:09:06;;;;;;;12.82;8.25;;;10.60;84.60;;;;;;5057664;28;20053;-48
2022/01/12 00:11:34;;;;;;;12.63;8.00;;;10.60;85.00;;;;;;5057870;28;20033;-49
2022/01/12 00:14:00;;;;;;;13.02;7.78;;;10.60;85.30;;;;;;5057677;28;20029;-49
2022/01/12 00:16:26;;;;;;;14.10;8.35;;;10.60;84.80;;;;;;5058009;28;20553;-52
2022/01/12 00:18:51;;;;;;;15.70;9.43;;;10.60;85.00;;;;;;5057640;28;20509;-48
2022/01/12 00:21:17;;;;;;;12.80;7.78;;;10.60;84.80;;;;;;5057264;28;20052;-52
2022/01/12 00:23:43;;;;;;;14.82;9.15;;;10.60;85.00;;;;;;5057084;28;20017;-48
2022/01/12 00:26:13;;;;;;;15.98;9.52;;;10.50;85.30;;;;;;5057428;28;20166;-51
2022/01/12 00:34:11;;;;;;;12.93;7.55;;;10.50;85.30;;;;;;5057586;28;20112;-50
2022/01/12 00:36:38;;;;;;;13.85;8.13;;;10.50;84.70;;;;;;5057248;28;20033;-49
2022/01/12 00:39:06;;;;;;;14.95;7.78;;;10.50;84.90;;;;;;5057465;28;20040;-50
2022/01/12 00:41:33;;;;;;;14.30;8.43;;;10.40;85.20;;;;;;5057669;28;20040;-49
2022/01/12 00:44:00;;;;;;;14.95;8.38;;;10.50;85.00;;;;;;5057072;28;20477;-52
2022/01/12 00:46:30;;;;;;;15.55;7.88;;;10.50;84.40;;;;;;5057225;28;20017;-48
2022/01/12 00:48:58;;;;;;;13.40;7.80;;;10.40;84.20;;;;;;5057191;28;20017;-50
2022/01/12 00:51:26;;;;;;;14.82;8.32;;;10.40;84.20;;;;;;5057458;28;20056;-48
2022/01/12 00:53:54;;;;;;;15.38;8.98;;;10.30;84.90;;;;;;5057148;28;20166;-49
2022/01/12 00:56:20;;;;;;;14.35;7.97;;;10.30;85.30;;;;;;5057188;28;20021;-50
2022/01/12 00:58:46;;;;;;;15.25;9.45;;;10.30;85.60;;;;;;5057125;28;20044;-50
2022/01/12 01:01:12;;;;;;;15.15;9.90;;;10.30;85.60;;;;;;5057218;28;20546;-47
2022/01/12 01:03:38;;;;;;;14.85;9.55;;;10.40;85.30;;;;;;5057259;28;20406;-48
2022/01/12 01:06:06;;;;;;;16.40;10.63;;;10.40;85.20;;;;;;5056856;28;20025;-51
2022/01/12 01:08:32;;;;;;;18.73;9.60;;;10.30;85.40;;;;;;5057218;28;20025;-47
2022/01/12 01:10:58;;;;;;;13.73;8.90;;;10.30;85.60;;;;;;5057215;28;20029;-51
2022/01/12 01:13:33;;;;;;;18.75;8.52;;;10.40;85.30;;;;;;5057260;28;20540;-49
2022/01/12 01:27:04;;;;;;;11.10;6.90;;;10.40;85.10;;;;;;5056950;28;20063;-49
2022/01/12 01:29:30;;;;;;;10.20;6.22;;;10.30;85.40;;;;;;5057037;28;20655;-50
2022/01/12 01:31:56;;;;;;;13.00;6.45;;;10.30;85.50;;;;;;5056802;28;20021;-52
2022/01/12 01:34:22;;;;;;;16.88;7.35;;;10.30;85.00;;;;;;5056725;28;20584;-49
2022/01/12 01:36:50;;;;;;;13.15;7.00;;;10.30;85.30;;;;;;5059805;28;20113;-50
2022/01/12 01:39:22;;;;;;;16.77;8.00;;;10.30;85.00;;;;;;5060509;28;20094;-48
2022/01/12 01:42:03;;;;;;;13.88;7.32;;;10.30;84.80;;;;;;5060431;28;20025;-49
2022/01/12 01:55:13;;;;;;;15.25;8.40;;;10.40;85.10;;;;;;5060231;28;20048;-51
2022/01/12 01:57:40;;;;;;;14.07;8.45;;;10.40;84.90;;;;;;5060198;28;20044;-48
2022/01/12 02:00:09;;;;;;;14.23;8.93;;;10.40;84.80;;;;;;5059996;28;20021;-50
2022/01/12 02:02:35;;;;;;;12.43;8.10;;;10.40;84.80;;;;;;5059681;28;20514;-52
2022/01/12 02:05:02;;;;;;;15.32;9.13;;;10.40;84.90;;;;;;5060305;28;20029;-46
2022/01/12 02:07:28;;;;;;;13.80;8.27;;;10.40;85.20;;;;;;5060114;28;20025;-50
2022/01/12 02:09:53;;;;;;;14.90;9.68;;;10.40;84.80;;;;;;5059999;28;20376;-49
2022/01/12 02:12:29;;;;;;;17.58;8.98;;;10.50;84.80;;;;;;5060099;28;20033;-52
2022/01/12 02:14:57;;;;;;;14.50;8.35;;;10.40;85.10;;;;;;5059672;28;20071;-49
2022/01/12 02:17:29;;;;;;;14.85;9.27;;;10.50;85.00;;;;;;5059705;28;20044;-49
2022/01/12 02:36:22;;;;;;;12.20;7.57;;;10.50;85.10;;;;;;5059399;28;20056;-53
2022/01/12 02:41:33;;;;;;;13.80;8.45;;;10.50;85.20;;;;;;5059486;28;20503;-48
2022/01/12 02:54:47;;;;;;;13.50;7.85;;;10.50;84.80;;;;;;5059423;28;20033;-52
2022/01/12 02:57:13;;;;;;;12.70;7.88;;;10.50;84.90;;;;;;5058881;28;20500;-53
2022/01/12 03:02:30;;;;;;;14.35;8.25;;;10.40;85.20;;;;;;5059189;28;20385;-49
2022/01/12 03:05:25;;;;;;;13.82;8.20;;;10.40;85.50;;;;;;5058827;28;20029;-48
2022/01/12 03:07:49;;;;;;;15.60;7.35;;;10.40;85.60;;;;;;5058661;28;20077;-51
2022/01/12 03:10:15;;;;;;;14.95;8.52;;;10.50;85.50;;;;;;5058721;28;20437;-52
2022/01/12 03:12:44;;;;;;;14.48;7.88;;;10.50;85.40;;;;;;5058852;28;20028;-53
2022/01/12 03:15:10;;;;;;;12.63;7.57;;;10.50;85.40;;;;;;5058925;28;20035;-47
2022/01/12 03:17:36;;;;;;;13.98;7.95;;;10.50;85.30;;;;;;5058605;28;20029;-50
2022/01/12 03:20:03;;;;;;;14.43;7.75;;;10.50;85.20;;;;;;5058324;28;20562;-49
2022/01/12 03:22:29;;;;;;;13.90;8.20;;;10.50;85.20;;;;;;5058978;28;20025;-51
2022/01/12 03:24:55;;;;;;;12.95;7.15;;;10.50;85.20;;;;;;5058506;28;20369;-51
2022/01/12 03:27:22;;;;;;;13.95;8.60;;;10.50;85.30;;;;;;5058445;28;20021;-51
2022/01/12 03:29:51;;;;;;;13.90;7.05;;;10.50;85.40;;;;;;5058339;28;20025;-52
2022/01/12 03:32:22;;;;;;;13.23;7.40;;;10.50;85.20;;;;;;5058058;28;20048;-52
2022/01/12 03:34:54;;;;;;;12.50;6.95;;;10.60;85.00;;;;;;5058283;28;20053;-50
2022/01/12 03:37:41;;;;;;;11.77;6.88;;;10.50;85.20;;;;;;5058516;28;20025;-47
2022/01/12 03:40:09;;;;;;;12.32;7.07;;;10.50;85.20;;;;;;5058448;28;20029;-50
2022/01/12 03:42:35;;;;;;;11.93;6.90;;;10.50;85.20;;;;;;5058084;28;20418;-50
2022/01/12 03:45:02;;;;;;;12.13;7.38;;;10.50;85.20;;;;;;5058138;28;20021;-50
2022/01/12 03:47:28;;;;;;;11.57;6.85;;;10.60;85.30;;;;;;5058299;28;20063;-48
2022/01/12 03:49:53;;;;;;;12.00;7.00;;;10.60;85.50;;;;;;5058075;28;20025;-48
2022/01/12 03:52:19;;;;;;;14.05;7.30;;;10.60;85.60;;;;;;5058072;28;20396;-49
2022/01/12 03:54:45;;;;;;;12.00;7.55;;;10.60;85.60;;;;;;5058051;28;20025;-50
2022/01/12 03:57:11;;;;;;;13.38;7.38;;;10.60;85.60;;;;;;5058067;28;20519;-50
2022/01/12 03:59:36;;;;;;;11.13;6.65;;;10.60;85.60;;;;;;5057171;28;20506;-49
2022/01/12 04:02:02;;;;;;;13.73;7.20;;;10.60;85.70;;;;;;5057771;28;20051;-49
2022/01/12 04:04:36;;;;;;;12.00;7.45;;;10.60;85.60;;;;;;5058092;28;20021;-49
2022/01/12 04:09:47;;;;;;;11.55;7.20;;;10.60;85.50;;;;;;5057947;28;20051;-50
2022/01/12 04:12:14;;;;;;;13.32;7.28;;;10.60;85.60;;;;;;5057716;28;20107;-50
2022/01/12 04:14:40;;;;;;;12.93;7.10;;;10.70;85.60;;;;;;5057805;28;20021;-51
2022/01/12 04:17:06;;;;;;;13.32;7.03;;;10.70;85.50;;;;;;5057636;28;20021;-48
2022/01/12 04:19:32;;;;;;;11.43;6.53;;;10.60;85.50;;;;;;5057732;28;20033;-52
2022/01/12 04:22:07;;;;;;;12.38;6.68;;;10.70;85.50;;;;;;5057289;28;20052;-51
2022/01/12 04:24:35;;;;;;;13.00;7.07;;;10.70;85.50;;;;;;5057526;28;20029;-49
2022/01/12 04:27:00;;;;;;;11.50;6.78;;;10.70;85.40;;;;;;5057468;28;20024;-47
2022/01/12 04:29:26;;;;;;;16.25;7.75;;;10.70;85.30;;;;;;5057644;28;20400;-53
2022/01/12 04:31:52;;;;;;;10.68;6.28;;;10.70;85.30;;;;;;5057774;28;20435;-48
2022/01/12 04:34:18;;;;;;;12.82;7.15;;;10.70;85.30;;;;;;5057426;28;20079;-49
2022/01/12 04:36:43;;;;;;;11.43;6.15;;;10.70;85.30;;;;;;5057509;28;20036;-47
2022/01/12 04:39:09;;;;;;;11.88;7.43;;;10.70;85.30;;;;;;5057507;28;20029;-51
2022/01/12 04:41:36;;;;;;;15.55;7.13;;;10.70;85.40;;;;;;5057184;28;20029;-49
2022/01/12 04:44:02;;;;;;;14.85;8.05;;;10.80;85.30;;;;;;5057364;28;20036;-50
2022/01/12 04:46:49;;;;;;;12.73;7.32;;;10.70;85.40;;;;;;5057223;28;20025;-48
2022/01/12 04:49:46;;;;;;;12.20;6.95;;;10.80;85.30;;;;;;5057433;28;20033;-51
2022/01/12 04:52:07;;;;;;;12.98;7.05;;;10.80;85.40;;;;;;5056577;28;20029;-47
2022/01/12 04:54:33;;;;;;;13.82;7.35;;;10.80;85.50;;;;;;5057410;28;20579;-49
2022/01/12 04:56:59;;;;;;;14.27;6.82;;;10.80;85.40;;;;;;5057234;28;20500;-51
2022/01/12 04:59:25;;;;;;;11.45;7.28;;;10.80;85.40;;;;;;5057141;28;20036;-52
2022/01/12 05:01:57;;;;;;;12.65;7.03;;;10.80;85.40;;;;;;5057183;28;20033;-49
2022/01/12 05:07:23;;;;;;;17.00;7.20;;;10.80;85.40;;;;;;5056969;28;20023;-49
2022/01/12 05:12:42;;;;;;;11.80;6.40;;;10.80;85.40;;;;;;5057069;28;20025;-50
2022/01/12 05:12:51;;;;;;;12.93;6.57;;;10.80;85.50;;;;;;5060806;28;20025;-50
2022/01/12 05:15:25;;;;;;;12.20;6.63;;;10.80;85.50;;;;;;5060792;28;20064;-50
2022/01/12 05:17:51;;;;;;;12.13;6.72;;;10.90;85.50;;;;;;5060896;28;20386;-49
2022/01/12 05:20:17;;;;;;;12.52;6.22;;;10.80;85.30;;;;;;5060840;28;20049;-50
2022/01/12 05:22:43;;;;;;;11.50;6.20;;;10.80;85.60;;;;;;5060939;28;20032;-50
2022/01/12 05:25:09;;;;;;;12.98;6.72;;;10.90;85.50;;;;;;5060907;28;20100;-47
2022/01/12 05:27:35;;;;;;;11.30;6.00;;;10.90;85.70;;;;;;5060933;28;20027;-49
2022/01/12 05:30:00;;;;;;;12.20;6.20;;;10.90;85.60;;;;;;5060717;28;20025;-50
2022/01/12 05:32:27;;;;;;;10.63;6.13;;;10.90;85.50;;;;;;5060869;28;20580;-49
2022/01/12 05:34:58;;;;;;;12.80;6.40;;;10.90;85.30;;;;;;5060843;28;20029;-51
2022/01/12 05:37:24;;;;;;;9.88;5.82;;;10.90;85.20;;;;;;5060494;28;20028;-48
2022/01/12 05:39:50;;;;;;;10.82;5.43;;;10.90;85.10;;;;;;5060963;28;20029;-48
2022/01/12 05:42:16;;;;;;;10.20;5.47;;;10.90;85.10;;;;;;5060620;28;20056;-51
2022/01/12 05:44:42;;;;;;;11.35;5.38;;;10.90;85.20;;;;;;5060442;28;20076;-48
2022/01/12 05:47:18;;;;;;;10.32;5.30;;;10.80;85.20;;;;;;5060442;28;20025;-50
2022/01/12 05:49:45;;;;;;;11.60;5.50;;;10.90;85.20;;;;;;5060123;28;20057;-51
2022/01/12 05:52:12;;;;;;;10.20;5.88;;;10.80;85.20;;;;;;5060487;28;20025;-51
2022/01/12 05:54:38;;;;;;;10.30;5.50;;;10.80;85.40;;;;;;5060192;28;20036;-48
2022/01/12 05:57:04;;;;;;;11.43;5.55;;;10.80;85.40;;;;;;5060279;28;20025;-50
2022/01/12 05:59:30;;;;;;;9.82;5.85;;;10.80;85.40;;;;;;5060037;28;20112;-49
2022/01/12 06:01:56;;;;;;;9.52;5.13;;;10.70;85.30;;;;;;5059850;28;20100;-49
2022/01/12 06:04:21;;;;;;;12.63;6.32;;;10.70;85.50;;;;;;5060301;28;20029;-50
2022/01/12 06:06:47;;;;;;;13.00;6.40;;;10.70;85.50;;;;;;5060104;28;20086;-50
2022/01/12 06:09:13;;;;;;;13.63;6.40;;;10.70;85.70;;;;;;5060011;28;20100;-50
2022/01/12 06:11:39;;;;;;;11.52;6.35;;;10.60;85.50;;;;;;5060133;28;20124;-50
2022/01/12 06:14:07;;;;;;;9.40;5.43;;;10.60;85.20;;;;;;5059911;28;20100;-49
2022/01/12 06:16:33;;;;;;;7.50;4.35;;;10.50;84.80;;;;;;5059950;28;20037;-49
2022/01/12 06:18:59;;;;;;;9.27;5.00;;;10.40;84.80;;;;;;5060035;28;20024;-52
2022/01/12 06:21:24;;;;;;;11.05;5.07;;;10.30;84.80;;;;;;5059336;28;20057;-52
2022/01/12 06:23:50;;;;;;;9.70;4.72;;;10.30;84.80;;;;;;5059227;28;20029;-52
2022/01/12 06:26:16;;;;;;;10.23;4.95;;;10.20;84.90;;;;;;5059936;28;20012;-48
2022/01/12 06:28:53;;;;;;;11.55;5.20;;;10.10;85.10;;;;;;5059569;28;20507;-48
2022/01/12 06:31:26;;;;;;;8.73;4.32;;;10.00;84.70;;;;;;5059769;28;20084;-47
2022/01/12 06:33:51;;;;;;;7.95;3.95;;;10.00;84.60;;;;;;5059991;28;20033;-49
2022/01/12 06:36:20;;;;;;;9.55;4.60;;;9.90;84.70;;;;;;5059480;28;20439;-51
2022/01/12 06:38:46;;;;;;;8.30;4.38;;;9.80;85.30;;;;;;5059512;28;20018;-53
2022/01/12 06:41:13;;;;;;;8.07;3.90;;;9.80;84.70;;;;;;5059316;28;20078;-49
2022/01/12 06:43:39;;;;;;;10.25;4.38;;;9.70;84.70;;;;;;5059060;28;20021;-49
2022/01/12 06:46:06;;;;;;;7.18;3.60;;;9.60;84.50;;;;;;5059499;28;20056;-47
2022/01/12 06:48:32;;;;;;;6.63;3.80;;;9.50;84.70;;;;;;5059272;28;20017;-49
2022/01/12 06:50:58;;;;;;;6.60;3.65;;;9.50;84.40;;;;;;5058048;28;20032;-47
2022/01/12 06:53:24;;;;;;;5.72;3.00;;;9.40;84.40;;;;;;5058960;28;20032;-51
2022/01/12 06:55:50;;;;;;;5.57;2.83;;;9.40;84.40;;;;;;5059342;28;20057;-49
2022/01/12 06:58:16;;;;;;;5.55;3.00;;;9.30;84.60;;;;;;5059136;28;20029;-48
2022/01/12 07:00:42;;;;;;;6.65;3.22;;;9.30;84.80;;;;;;5059043;28;20075;-48
2022/01/12 07:03:09;;;;;;;5.30;2.90;;;9.30;84.70;;;;;;5058946;28;20071;-48
2022/01/12 07:05:35;;;;;;;4.18;2.58;;;9.30;84.40;;;;;;5059162;28;20032;-50
2022/01/12 07:08:01;;;;;;;4.93;2.70;;;9.20;84.40;;;;;;5058868;28;20029;-50
2022/01/12 07:10:26;;;;;;;5.47;3.08;;;9.20;84.90;;;;;;5058846;28;20102;-50
2022/01/12 07:12:52;;;;;;;3.53;2.55;;;9.10;85.20;;;;;;5058963;28;20048;-50
2022/01/12 07:15:18;;;;;;;5.75;3.42;;;9.20;85.40;;;;;;5058703;28;20095;-47
2022/01/12 07:17:44;;;;;;;5.95;3.10;;;9.20;85.00;;;;;;5058670;28;20075;-51
2022/01/12 07:20:10;;;;;;;6.07;3.83;;;9.10;84.50;;;;;;5058562;28;20098;-51
2022/01/12 07:22:36;;;;;;;7.28;4.10;;;9.10;85.10;;;;;;5058421;28;20516;-49
2022/01/12 07:25:02;;;;;;;8.98;5.25;;;9.00;84.60;;;;;;5058664;28;20025;-47
2022/01/12 07:27:28;;;;;;;9.82;6.38;;;9.00;84.30;;;;;;5058668;28;20036;-49
2022/01/12 07:29:54;;;;;;;8.85;5.88;;;8.90;84.10;;;;;;5058434;28;20025;-47
2022/01/12 07:32:19;;;;;;;9.07;5.78;;;8.90;84.30;;;;;;5058353;28;20021;-47
2022/01/12 07:34:45;;;;;;;7.57;5.45;;;8.80;84.30;;;;;;5057583;28;20052;-51
2022/01/12 07:37:12;;;;;;;8.48;5.53;;;8.70;84.60;;;;;;5056140;28;20029;-47
2022/01/12 07:39:38;;;;;;;8.90;5.40;;;8.70;84.70;;;;;;5057861;28;20029;-48
2022/01/12 07:42:04;;;;;;;7.95;5.15;;;8.70;84.60;;;;;;5057494;28;20029;-50
2022/01/12 07:44:30;;;;;;;8.52;4.97;;;8.70;84.80;;;;;;5055938;28;21141;-52
2022/01/12 07:46:56;;;;;;;8.00;5.00;;;8.60;84.80;;;;;;5056316;28;20021;-51
2022/01/12 07:49:22;;;;;;;9.07;5.60;;;8.60;85.20;;;;;;5056246;28;20025;-50
2022/01/12 07:51:48;;;;;;;8.82;5.63;;;8.60;84.70;;;;;;5056016;28;20789;-53
2022/01/12 07:54:14;;;;;;;9.38;5.80;;;8.50;84.30;;;;;;5055886;28;20021;-48
2022/01/12 07:56:40;;;;;;;10.32;5.20;;;8.50;84.50;;;;;;5055816;28;20051;-50
2022/01/12 07:59:05;;;;;;;9.38;5.18;;;8.50;84.00;;;;;;5057172;28;20025;-49
2022/01/12 08:01:31;;;;;;;7.82;4.80;;;8.40;84.00;;;;;;5057907;28;20110;-50
2022/01/12 08:03:57;;;;;;;8.02;4.85;;;8.40;84.50;;;;;;5057822;28;20017;-49
2022/01/12 08:06:23;;;;;;;9.35;5.38;;;8.40;84.40;;;;;;5057696;28;20052;-49
2022/01/12 08:08:49;;;;;;;10.77;6.00;;;8.30;84.30;;;;;;5057453;28;20572;-49
2022/01/12 08:11:15;;;;;;;10.68;6.22;;;8.30;84.40;;;;;;5057664;28;20029;-51
2022/01/12 08:13:42;;;;;;;12.48;6.05;;;8.30;84.60;;;;;;5057873;28;20502;-48
2022/01/12 08:16:08;;;;;;;8.80;5.32;;;8.30;84.80;;;;;;5057524;28;20408;-52
2022/01/12 08:18:34;;;;;;;9.60;5.20;;;8.40;84.70;;;;;;5058009;28;20062;-51
2022/01/12 08:21:01;;;;;;;8.45;4.80;;;8.40;84.80;;;;;;5057281;28;20096;-48
2022/01/12 08:23:26;;;;;;;8.93;4.97;;;8.40;84.60;;;;;;5057307;28;20446;-51
2022/01/12 08:25:52;;;;;;;9.07;5.20;;;8.40;84.20;;;;;;5057737;28;20108;-48
2022/01/12 08:28:18;;;;;;;8.40;4.72;;;8.50;84.90;;;;;;5057762;28;20064;-51
2022/01/12 08:30:44;;;;;;;8.32;5.07;;;8.50;85.00;;;;;;5057562;28;20104;-51
2022/01/12 08:33:11;;;;;;;10.27;5.28;;;8.50;85.00;;;;;;5057291;28;20040;-49
2022/01/12 08:35:37;;;;;;;8.32;4.97;;;8.60;84.60;;;;;;5056744;28;20033;-50
2022/01/12 08:38:03;;;;;;;9.20;5.30;;;8.60;84.70;;;;;;5057377;28;20040;-48
2022/01/12 08:40:30;;;;;;;9.38;5.70;;;8.60;84.40;;;;;;5057543;28;20029;-48
2022/01/12 08:42:56;;;;;;;9.00;5.10;;;8.70;85.00;;;;;;5057469;28;20088;-47
2022/01/12 08:45:22;;;;;;;8.60;5.25;;;8.70;85.10;;;;;;5056830;28;20039;-48
2022/01/12 08:47:48;;;;;;;7.53;3.95;;;8.80;85.10;;;;;;5057492;28;20021;-50
2022/01/12 08:50:14;;;;;;;6.30;3.95;;;8.80;84.90;;;;;;5056483;28;20519;-55
2022/01/12 08:52:44;;;;;;;6.93;3.72;;;8.90;85.60;;;;;;5056832;28;20032;-55
2022/01/12 08:55:15;;;;;;;10.00;4.43;;;9.00;84.70;;;;;;5056558;28;20460;-55
2022/01/12 08:57:41;;;;;;;8.50;5.45;;;9.00;84.20;;;;;;5056858;28;20025;-53
2022/01/12 09:00:09;;;;;;;7.80;4.90;;;9.10;84.00;;;;;;5056700;28;20523;-52
2022/01/12 09:02:35;;;;;;;7.63;4.55;;;9.10;84.20;;;;;;5057147;28;20029;-51
2022/01/12 09:05:01;;;;;;;7.63;4.63;;;9.10;84.60;;;;;;5057287;28;20025;-53
2022/01/12 09:07:27;;;;;;;8.50;5.45;;;9.10;85.10;;;;;;5057050;28;20431;-54
2022/01/12 09:09:53;;;;;;;8.68;5.90;;;9.30;85.00;;;;;;5056772;28;20029;-52
2022/01/12 09:12:18;;;;;;;8.57;6.85;;;9.30;85.40;;;;;;5056957;28;20443;-51
2022/01/12 09:14:45;;;;;;;10.43;6.75;;;9.40;85.40;;;;;;5056978;28;20022;-49
2022/01/12 09:17:19;;;;;;;9.10;6.25;;;9.50;85.50;;;;;;5056781;28;20390;-51
2022/01/12 09:19:48;;;;;;;9.63;6.43;;;9.60;85.60;;;;;;5056831;28;20036;-50
2022/01/12 09:22:14;;;;;;;9.40;5.93;;;9.70;85.60;;;;;;5057014;28;20032;-52
2022/01/12 09:24:42;;;;;;;8.98;5.72;;;9.80;85.40;;;;;;5056850;28;20016;-52
2022/01/12 09:27:08;;;;;;;9.07;5.35;;;9.90;85.60;;;;;;5057126;28;20424;-50
2022/01/12 09:29:34;;;;;;;8.77;4.80;;;9.90;85.50;;;;;;5056986;28;20365;-51
2022/01/12 09:32:01;;;;;;;7.80;4.63;;;10.00;85.30;;;;;;5056738;28;20116;-52
2022/01/12 09:34:27;;;;;;;7.40;4.43;;;10.10;85.10;;;;;;5056963;28;20045;-50
2022/01/12 09:36:53;;;;;;;7.60;4.60;;;10.10;85.20;;;;;;5057138;28;20033;-50
2022/01/12 09:39:18;;;;;;;9.20;5.20;;;10.10;85.60;;;;;;5056737;28;20071;-53
2022/01/12 09:41:45;;;;;;;8.13;5.35;;;10.20;85.50;;;;;;5056810;28;20510;-51
2022/01/12 09:44:12;;;;;;;10.50;7.22;;;10.30;85.50;;;;;;5056865;28;20066;-52
2022/01/12 09:46:38;;;;;;;11.35;6.78;;;10.30;85.50;;;;;;5056463;28;20428;-51
2022/01/12 09:49:06;;;;;;;11.60;6.72;;;10.40;85.60;;;;;;5056804;28;20020;-54
2022/01/12 09:51:32;;;;;;;11.73;7.43;;;10.40;85.70;;;;;;5056397;28;20560;-51
2022/01/12 09:53:58;;;;;;;12.07;8.45;;;10.50;85.70;;;;;;5056476;28;20094;-55
2022/01/12 09:56:28;;;;;;;12.13;7.32;;;10.50;85.80;;;;;;5056669;28;20025;-53
2022/01/12 09:58:55;;;;;;;9.68;6.43;;;10.60;85.90;;;;;;5059499;28;20100;-54
2022/01/12 10:01:26;;;;;;;11.52;6.97;;;10.60;86.00;;;;;;5059670;28;20033;-54
2022/01/12 10:03:52;;;;;;;10.57;6.30;;;10.70;85.90;;;;;;5060212;28;20048;-53
2022/01/12 10:06:18;;;;;;;12.48;6.75;;;10.80;85.90;;;;;;5060036;28;20029;-54
2022/01/12 10:08:44;;;;;;;10.95;6.68;;;10.80;85.90;;;;;;5059965;28;20082;-55
2022/01/12 10:11:13;;;;;;;11.10;7.18;;;10.80;85.90;;;;;;5059808;28;20070;-54
2022/01/12 10:13:43;;;;;;;11.60;6.65;;;10.90;85.80;;;;;;5059894;28;20037;-51
2022/01/12 10:16:16;;;;;;;11.38;7.63;;;10.90;85.70;;;;;;5059771;28;20396;-55
2022/01/12 10:18:57;;;;;;;12.65;8.65;;;11.00;85.80;;;;;;5059632;28;20506;-53
2022/01/12 10:21:31;;;;;;;14.30;8.60;;;11.00;85.60;;;;;;5059399;28;20140;-54
2022/01/12 10:24:00;;;;;;;12.37;7.40;;;11.10;85.70;;;;;;5059683;28;20021;-54
2022/01/12 10:26:41;;;;;;;11.55;6.80;;;11.10;86.00;;;;;;5059768;28;20104;-53
2022/01/12 10:29:18;;;;;;;12.80;7.65;;;11.20;86.00;;;;;;5060005;28;20021;-56
2022/01/12 10:31:51;;;;;;;13.32;7.75;;;11.20;85.90;;;;;;5059809;28;20104;-54
2022/01/12 10:34:26;;;;;;;11.20;7.25;;;11.30;85.70;;;;;;5059641;28;20025;-55
2022/01/12 10:36:54;;;;;;;12.02;7.03;;;11.30;85.80;;;;;;5059581;28;20032;-52
2022/01/12 10:39:22;;;;;;;14.30;8.05;;;11.40;85.70;;;;;;5059403;28;20017;-51
2022/01/12 10:41:57;;;;;;;12.77;8.82;;;11.40;85.80;;;;;;5059306;28;20066;-56
2022/01/12 10:44:35;;;;;;;14.35;8.98;;;11.50;85.80;;;;;;5059381;28;20098;-55
2022/01/12 10:47:20;;;;;;;13.70;8.57;;;11.50;85.70;;;;;;5059567;28;20014;-52
2022/01/12 10:49:55;;;;;;;13.30;8.23;;;11.50;85.60;;;;;;5059229;28;20021;-55
2022/01/12 10:52:23;;;;;;;13.30;8.40;;;11.50;85.50;;;;;;5059418;28;20025;-52
2022/01/12 10:54:52;;;;;;;14.93;7.75;;;11.60;85.80;;;;;;5059073;28;20053;-53
2022/01/12 10:57:24;;;;;;;11.90;6.53;;;11.60;85.80;;;;;;5059354;28;20020;-55
2022/01/12 11:00:18;;;;;;;11.35;7.03;;;11.60;85.60;;;;;;5059046;28;20040;-56
2022/01/12 11:02:53;;;;;;;12.32;6.80;;;11.70;85.60;;;;;;5058970;28;20058;-54
2022/01/12 11:05:23;;;;;;;13.73;7.82;;;11.70;85.70;;;;;;5058077;28;20033;-53
2022/01/12 11:07:50;;;;;;;14.65;9.07;;;11.80;86.10;;;;;;5058865;28;20017;-50
2022/01/12 11:10:18;;;;;;;12.60;8.48;;;11.90;85.90;;;;;;5058564;28;20104;-53
2022/01/12 11:12:44;;;;;;;12.98;8.10;;;11.90;85.90;;;;;;5058911;28;20033;-54
2022/01/12 11:15:13;;;;;;;11.73;7.05;;;12.00;85.80;;;;;;5058412;28;20100;-54
2022/01/12 11:17:41;;;;;;;12.10;8.48;;;12.10;85.60;;;;;;5059248;28;20102;-56
2022/01/12 11:20:27;;;;;;;12.00;7.43;;;12.20;85.90;;;;;;5058237;28;20049;-55
2022/01/12 11:23:11;;;;;;;12.63;7.95;;;12.20;85.20;;;;;;5058688;28;20514;-51
2022/01/12 11:25:43;;;;;;;11.98;7.78;;;12.30;85.30;;;;;;5058714;28;20093;-55
2022/01/12 11:28:21;;;;;;;10.55;7.38;;;12.40;85.40;;;;;;5058580;28;20041;-54
2022/01/12 11:30:50;;;;;;;13.40;8.15;;;12.50;85.70;;;;;;5058629;28;20017;-54
2022/01/12 11:33:34;;;;;;;14.10;8.20;;;12.60;85.60;;;;;;5058515;28;20028;-56
2022/01/12 11:36:18;;;;;;;13.00;7.70;;;12.80;85.20;;;;;;5058312;28;20017;-51
2022/01/12 11:38:48;;;;;;;13.43;8.87;;;12.90;84.70;;;;;;5058307;28;20334;-52
2022/01/12 11:41:26;;;;;;;12.43;8.25;;;13.10;85.20;;;;;;5058051;28;20121;-54
2022/01/12 11:44:03;;;;;;;11.93;8.02;;;13.20;84.60;;;;;;5058445;28;20029;-52
2022/01/12 11:46:44;;;;;;;12.60;9.35;;;13.40;84.70;;;;;;5057832;28;20080;-51
2022/01/12 11:49:10;;;;;;;11.95;8.57;;;13.80;85.20;;;;;;5057970;28;20486;-54
2022/01/12 11:51:41;;;;;;;11.77;8.13;;;14.10;82.80;;;;;;5057564;28;20032;-56
2022/01/12 11:54:15;;;;;;;12.68;8.90;;;14.10;81.30;;;;;;5058010;28;20029;-55
2022/01/12 11:56:50;;;;;;;14.00;7.60;;;14.10;81.70;;;;;;5057859;28;20443;-54
2022/01/12 11:59:16;;;;;;;12.95;8.48;;;14.00;82.00;;;;;;5057700;28;20029;-53
2022/01/12 12:02:05;;;;;;;11.35;7.93;;;13.80;80.60;;;;;;5057822;28;20542;-56
2022/01/12 12:04:32;;;;;;;11.15;7.60;;;13.60;81.30;;;;;;5058119;28;20067;-52
2022/01/12 12:07:10;;;;;;;11.68;7.95;;;13.60;81.80;;;;;;5057669;28;20504;-55
2022/01/12 12:09:44;;;;;;;12.07;8.00;;;13.50;81.60;;;;;;5057427;28;20028;-55
2022/01/12 12:12:16;;;;;;;10.90;7.30;;;13.50;80.50;;;;;;5057338;28;20033;-53
2022/01/12 12:14:57;;;;;;;11.00;7.78;;;13.40;82.20;;;;;;5056941;28;20048;-55
2022/01/12 12:17:25;;;;;;;10.93;7.03;;;13.40;81.90;;;;;;5056787;28;20082;-50
2022/01/12 12:19:51;;;;;;;10.88;7.43;;;13.40;82.10;;;;;;5056714;28;20028;-55
2022/01/12 12:22:24;;;;;;;10.80;7.15;;;13.30;81.90;;;;;;5057899;28;20029;-56
2022/01/12 12:25:35;;;;;;;11.33;7.17;;;13.30;81.70;;;;;;5057785;28;20052;-54
2022/01/12 12:28:05;;;;;;;11.38;7.35;;;13.30;81.00;;;;;;5057750;28;20021;-53
2022/01/12 12:30:33;;;;;;;10.38;7.07;;;13.20;81.60;;;;;;5057418;28;20389;-55
2022/01/12 12:33:11;;;;;;;10.75;7.10;;;13.20;81.50;;;;;;5055969;28;20035;-52
2022/01/12 12:35:38;;;;;;;10.85;7.10;;;13.10;82.00;;;;;;5057581;28;20036;-51
2022/01/12 12:38:10;;;;;;;10.20;7.07;;;13.10;81.60;;;;;;5057412;28;20033;-54
2022/01/12 12:40:41;;;;;;;9.85;6.78;;;13.10;81.80;;;;;;5057382;28;20029;-53
2022/01/12 12:43:14;;;;;;;9.00;6.45;;;13.00;82.20;;;;;;5057047;28;20025;-50
2022/01/12 12:45:44;;;;;;;10.15;6.57;;;13.10;80.80;;;;;;5057094;28;20511;-51
2022/01/12 12:48:16;;;;;;;10.20;6.45;;;13.10;81.90;;;;;;5057394;28;20024;-54
2022/01/12 12:50:43;;;;;;;10.60;6.38;;;13.10;81.70;;;;;;5057295;28;20032;-54
2022/01/12 12:53:09;;;;;;;10.40;7.07;;;13.20;81.40;;;;;;5057201;28;20419;-51
2022/01/12 12:55:41;;;;;;;9.13;5.85;;;13.30;81.90;;;;;;5057416;28;20096;-55
2022/01/12 12:58:08;;;;;;;8.15;5.72;;;13.50;82.20;;;;;;5057406;28;20025;-49
2022/01/12 13:00:35;;;;;;;10.55;6.70;;;14.00;82.60;;;;;;5057328;28;20495;-48
2022/01/12 13:03:04;;;;;;;7.38;4.97;;;15.00;83.70;;;;;;5057295;28;20061;-48
2022/01/12 13:05:50;;;;;;;7.85;4.78;;;16.30;78.10;;;;;;5057342;28;20041;-49
2022/01/12 13:08:16;;;;;;;6.95;4.70;;;18.10;79.40;;;;;;5057175;28;20035;-47
2022/01/12 13:10:42;;;;;;;6.32;4.20;;;19.30;76.80;;;;;;5057116;28;20033;-50
2022/01/12 13:13:11;;;;;;;7.07;4.00;;;20.50;74.30;;;;;;5057213;28;20083;-51
2022/01/12 13:15:44;;;;;;;6.90;3.92;;;21.30;70.50;;;;;;5056837;28;20530;-48
2022/01/12 13:18:28;;;;;;;5.68;3.85;;;21.90;66.80;;;;;;5057130;28;20025;-47
2022/01/12 13:21:08;;;;;;;7.03;4.25;;;22.40;67.90;;;;;;5056757;28;20056;-49
2022/01/12 13:23:43;;;;;;;5.25;3.40;;;22.30;64.30;;;;;;5056607;28;20108;-50
2022/01/12 13:26:14;;;;;;;5.22;3.15;;;21.90;66.10;;;;;;5056890;28;20549;-49
2022/01/12 13:28:44;;;;;;;4.53;3.05;;;21.10;63.90;;;;;;5057189;28;20027;-54
2022/01/12 13:31:12;;;;;;;5.35;3.38;;;20.30;64.40;;;;;;5057455;28;20071;-52
2022/01/12 13:33:40;;;;;;;4.70;3.00;;;19.90;65.40;;;;;;5060724;28;20025;-50
2022/01/12 13:36:19;;;;;;;4.95;2.95;;;19.80;66.80;;;;;;5060702;28;20033;-49
2022/01/12 13:38:55;;;;;;;5.18;3.03;;;19.60;65.50;;;;;;5060617;28;20031;-49
2022/01/12 13:41:23;;;;;;;4.97;3.30;;;19.80;66.40;;;;;;5060733;28;20029;-50
2022/01/12 13:43:58;;;;;;;4.65;3.30;;;20.30;65.70;;;;;;5060448;28;20392;-49
2022/01/12 13:46:36;;;;;;;4.45;2.85;;;21.00;64.10;;;;;;5060542;28;20029;-49
2022/01/12 13:51:37;;;;;;;4.35;3.10;;;22.20;62.80;;;;;;5060387;28;20025;-50
2022/01/12 13:54:08;;;;;;;4.93;3.33;;;22.70;63.30;;;;;;5060263;28;20021;-51
2022/01/12 13:56:36;;;;;;;5.28;3.47;;;23.00;62.50;;;;;;5060610;28;20021;-49
2022/01/12 13:59:03;;;;;;;4.82;3.30;;;23.20;60.90;;;;;;5060418;28;20032;-51
2022/01/12 14:01:34;;;;;;;4.53;2.85;;;23.40;62.10;;;;;;5060368;28;20023;-53